sensor_id;sensor_type;location;lat;lon;timestamp;temperature;humidity
13198;DHT22;6664;52.514;13.440;2023-07-16T00:02:32;23.10;22.50
13198;DHT22;6664;52.514;13.440;2023-07-16T00:05:18;23.00;23.30
13198;DHT22;6664;52.514;13.440;2023-07-16T00:08:04;23.10;23.90
13198;DHT22;6664;52.514;13.440;2023-07-16T00:10:52;23.10;24.00
13198;DHT22;6664;52.514;13.440;2023-07-16T00:13:38;22.90;24.50
13198;DHT22;6664;52.514;13.440;2023-07-16T00:16:23;23.00;24.60
13198;DHT22;6664;52.514;13.440;2023-07-16T00:19:11;22.80;24.70
13198;DHT22;6664;52.514;13.440;2023-07-16T00:21:58;22.80;24.80
13198;DHT22;6664;52.514;13.440;2023-07-16T00:24:44;22.70;24.90
13198;DHT22;6664;52.514;13.440;2023-07-16T00:27:30;22.70;24.40
13198;DHT22;6664;52.514;13.440;2023-07-16T00:30:16;22.60;24.50
13198;DHT22;6664;52.514;13.440;2023-07-16T00:33:02;22.70;24.50
13198;DHT22;6664;52.514;13.440;2023-07-16T00:35:51;22.80;24.10
13198;DHT22;6664;52.514;13.440;2023-07-16T00:38:36;22.80;24.80
13198;DHT22;6664;52.514;13.440;2023-07-16T00:41:22;22.80;24.70
13198;DHT22;6664;52.514;13.440;2023-07-16T00:44:07;22.80;23.90
13198;DHT22;6664;52.514;13.440;2023-07-16T00:46:53;22.80;24.00
13198;DHT22;6664;52.514;13.440;2023-07-16T00:49:41;22.80;24.20
13198;DHT22;6664;52.514;13.440;2023-07-16T00:52:27;22.90;24.10
13198;DHT22;6664;52.514;13.440;2023-07-16T00:55:17;22.90;24.40
13198;DHT22;6664;52.514;13.440;2023-07-16T00:58:05;22.90;24.90
13198;DHT22;6664;52.514;13.440;2023-07-16T01:00:51;22.90;25.00
13198;DHT22;6664;52.514;13.440;2023-07-16T01:03:37;23.00;24.80
13198;DHT22;6664;52.514;13.440;2023-07-16T01:06:35;23.00;24.90
13198;DHT22;6664;52.514;13.440;2023-07-16T01:09:22;22.90;25.40
13198;DHT22;6664;52.514;13.440;2023-07-16T01:12:08;22.80;25.90
13198;DHT22;6664;52.514;13.440;2023-07-16T01:14:54;22.80;26.30
13198;DHT22;6664;52.514;13.440;2023-07-16T01:17:41;22.80;26.30
13198;DHT22;6664;52.514;13.440;2023-07-16T01:20:30;22.80;26.90
13198;DHT22;6664;52.514;13.440;2023-07-16T01:29:54;22.70;27.50
13198;DHT22;6664;52.514;13.440;2023-07-16T01:32:48;22.60;28.20
13198;DHT22;6664;52.514;13.440;2023-07-16T01:35:34;22.50;28.70
13198;DHT22;6664;52.514;13.440;2023-07-16T01:38:21;22.50;28.80
13198;DHT22;6664;52.514;13.440;2023-07-16T01:41:08;22.40;28.50
13198;DHT22;6664;52.514;13.440;2023-07-16T01:43:54;22.40;28.40
13198;DHT22;6664;52.514;13.440;2023-07-16T01:46:39;22.30;28.60
13198;DHT22;6664;52.514;13.440;2023-07-16T01:49:26;22.20;29.00
13198;DHT22;6664;52.514;13.440;2023-07-16T01:52:11;22.10;29.50
13198;DHT22;6664;52.514;13.440;2023-07-16T01:54:56;22.10;29.60
13198;DHT22;6664;52.514;13.440;2023-07-16T01:57:42;22.00;29.60
13198;DHT22;6664;52.514;13.440;2023-07-16T02:00:30;22.10;29.60
13198;DHT22;6664;52.514;13.440;2023-07-16T02:03:16;22.10;29.00
13198;DHT22;6664;52.514;13.440;2023-07-16T02:06:02;22.20;28.40
13198;DHT22;6664;52.514;13.440;2023-07-16T02:08:50;22.30;27.70
13198;DHT22;6664;52.514;13.440;2023-07-16T02:11:36;22.40;27.30
13198;DHT22;6664;52.514;13.440;2023-07-16T02:14:22;22.40;26.60
13198;DHT22;6664;52.514;13.440;2023-07-16T02:17:08;22.40;26.40
13198;DHT22;6664;52.514;13.440;2023-07-16T02:19:56;22.50;25.60
13198;DHT22;6664;52.514;13.440;2023-07-16T02:22:42;22.50;25.20
13198;DHT22;6664;52.514;13.440;2023-07-16T02:25:32;22.50;26.10
13198;DHT22;6664;52.514;13.440;2023-07-16T02:28:17;22.30;27.20
13198;DHT22;6664;52.514;13.440;2023-07-16T02:31:03;22.00;28.70
13198;DHT22;6664;52.514;13.440;2023-07-16T02:33:49;21.60;34.60
13198;DHT22;6664;52.514;13.440;2023-07-16T02:36:36;21.40;35.20
13198;DHT22;6664;52.514;13.440;2023-07-16T02:39:24;21.30;37.60
13198;DHT22;6664;52.514;13.440;2023-07-16T02:42:10;21.10;37.80
13198;DHT22;6664;52.514;13.440;2023-07-16T02:44:57;21.00;40.00
13198;DHT22;6664;52.514;13.440;2023-07-16T02:47:42;20.90;41.00
13198;DHT22;6664;52.514;13.440;2023-07-16T02:50:27;20.80;41.10
13198;DHT22;6664;52.514;13.440;2023-07-16T02:53:18;20.90;41.60
13198;DHT22;6664;52.514;13.440;2023-07-16T02:56:04;20.90;41.90
13198;DHT22;6664;52.514;13.440;2023-07-16T02:58:51;20.80;43.80
13198;DHT22;6664;52.514;13.440;2023-07-16T03:01:37;20.80;45.60
13198;DHT22;6664;52.514;13.440;2023-07-16T03:04:23;20.70;47.30
13198;DHT22;6664;52.514;13.440;2023-07-16T03:07:08;20.70;48.20
13198;DHT22;6664;52.514;13.440;2023-07-16T03:09:53;20.60;49.40
13198;DHT22;6664;52.514;13.440;2023-07-16T03:12:38;20.60;51.70
13198;DHT22;6664;52.514;13.440;2023-07-16T03:15:24;20.60;56.00
13198;DHT22;6664;52.514;13.440;2023-07-16T03:18:12;20.60;60.00
13198;DHT22;6664;52.514;13.440;2023-07-16T03:20:58;20.50;62.10
13198;DHT22;6664;52.514;13.440;2023-07-16T03:23:44;20.50;65.10
13198;DHT22;6664;52.514;13.440;2023-07-16T03:26:30;20.40;66.90
13198;DHT22;6664;52.514;13.440;2023-07-16T03:29:16;20.40;64.90
13198;DHT22;6664;52.514;13.440;2023-07-16T03:32:02;20.40;65.30
13198;DHT22;6664;52.514;13.440;2023-07-16T03:34:48;20.40;67.30
13198;DHT22;6664;52.514;13.440;2023-07-16T03:37:34;20.40;67.80
13198;DHT22;6664;52.514;13.440;2023-07-16T03:40:24;20.40;66.80
13198;DHT22;6664;52.514;13.440;2023-07-16T03:43:10;20.40;66.40
13198;DHT22;6664;52.514;13.440;2023-07-16T03:45:56;20.40;64.50
13198;DHT22;6664;52.514;13.440;2023-07-16T03:48:42;20.40;64.60
13198;DHT22;6664;52.514;13.440;2023-07-16T03:51:28;20.40;66.40
13198;DHT22;6664;52.514;13.440;2023-07-16T03:54:14;20.40;62.20
13198;DHT22;6664;52.514;13.440;2023-07-16T03:56:59;20.40;59.90
13198;DHT22;6664;52.514;13.440;2023-07-16T03:59:47;20.40;57.10
13198;DHT22;6664;52.514;13.440;2023-07-16T04:02:36;20.40;57.10
13198;DHT22;6664;52.514;13.440;2023-07-16T04:05:21;20.40;55.30
13198;DHT22;6664;52.514;13.440;2023-07-16T04:08:09;20.50;54.40
13198;DHT22;6664;52.514;13.440;2023-07-16T04:10:55;20.50;53.90
13198;DHT22;6664;52.514;13.440;2023-07-16T04:13:42;20.50;53.80
13198;DHT22;6664;52.514;13.440;2023-07-16T04:16:28;20.50;53.40
13198;DHT22;6664;52.514;13.440;2023-07-16T04:19:14;20.50;53.20
13198;DHT22;6664;52.514;13.440;2023-07-16T04:22:00;20.50;52.80
13198;DHT22;6664;52.514;13.440;2023-07-16T04:24:46;20.50;53.70
13198;DHT22;6664;52.514;13.440;2023-07-16T04:27:34;20.60;53.80
13198;DHT22;6664;52.514;13.440;2023-07-16T04:30:19;20.70;53.70
13198;DHT22;6664;52.514;13.440;2023-07-16T04:33:05;20.80;52.40
13198;DHT22;6664;52.514;13.440;2023-07-16T04:35:54;20.90;52.80
13198;DHT22;6664;52.514;13.440;2023-07-16T04:38:41;20.90;51.00
13198;DHT22;6664;52.514;13.440;2023-07-16T04:41:27;20.80;50.60
13198;DHT22;6664;52.514;13.440;2023-07-16T04:44:12;20.70;51.50
13198;DHT22;6664;52.514;13.440;2023-07-16T04:46:58;20.70;52.40
13198;DHT22;6664;52.514;13.440;2023-07-16T04:49:44;20.60;53.20
13198;DHT22;6664;52.514;13.440;2023-07-16T04:52:29;20.60;54.90
13198;DHT22;6664;52.514;13.440;2023-07-16T04:55:15;20.60;54.30
13198;DHT22;6664;52.514;13.440;2023-07-16T04:58:01;20.70;54.60
13198;DHT22;6664;52.514;13.440;2023-07-16T05:00:49;20.70;55.10
13198;DHT22;6664;52.514;13.440;2023-07-16T05:03:35;20.80;54.30
13198;DHT22;6664;52.514;13.440;2023-07-16T05:06:23;20.80;52.60
13198;DHT22;6664;52.514;13.440;2023-07-16T05:09:08;20.90;51.50
13198;DHT22;6664;52.514;13.440;2023-07-16T05:11:54;20.90;50.60
13198;DHT22;6664;52.514;13.440;2023-07-16T05:14:46;20.80;50.10
13198;DHT22;6664;52.514;13.440;2023-07-16T05:17:32;20.90;50.20
13198;DHT22;6664;52.514;13.440;2023-07-16T05:20:18;21.00;49.70
13198;DHT22;6664;52.514;13.440;2023-07-16T05:23:04;21.10;48.20
13198;DHT22;6664;52.514;13.440;2023-07-16T05:25:53;21.20;47.50
13198;DHT22;6664;52.514;13.440;2023-07-16T05:28:38;21.20;47.70
13198;DHT22;6664;52.514;13.440;2023-07-16T05:31:24;21.50;46.30
13198;DHT22;6664;52.514;13.440;2023-07-16T05:34:12;21.70;44.40
13198;DHT22;6664;52.514;13.440;2023-07-16T05:36:58;21.80;42.40
13198;DHT22;6664;52.514;13.440;2023-07-16T05:39:44;22.00;41.70
13198;DHT22;6664;52.514;13.440;2023-07-16T05:42:33;21.90;41.50
13198;DHT22;6664;52.514;13.440;2023-07-16T05:45:21;21.70;41.00
13198;DHT22;6664;52.514;13.440;2023-07-16T05:48:07;21.50;42.30
13198;DHT22;6664;52.514;13.440;2023-07-16T05:50:52;21.30;44.00
13198;DHT22;6664;52.514;13.440;2023-07-16T05:53:38;21.20;44.70
13198;DHT22;6664;52.514;13.440;2023-07-16T05:56:24;21.10;45.20
13198;DHT22;6664;52.514;13.440;2023-07-16T05:59:12;21.00;45.40
13198;DHT22;6664;52.514;13.440;2023-07-16T06:01:58;21.00;45.70
13198;DHT22;6664;52.514;13.440;2023-07-16T06:04:44;21.00;45.70
13198;DHT22;6664;52.514;13.440;2023-07-16T06:07:29;21.10;45.90
13198;DHT22;6664;52.514;13.440;2023-07-16T06:10:16;21.10;46.10
13198;DHT22;6664;52.514;13.440;2023-07-16T06:13:01;21.10;46.10
13198;DHT22;6664;52.514;13.440;2023-07-16T06:15:47;21.10;46.20
13198;DHT22;6664;52.514;13.440;2023-07-16T06:18:36;21.20;46.00
13198;DHT22;6664;52.514;13.440;2023-07-16T06:21:22;21.20;46.40
13198;DHT22;6664;52.514;13.440;2023-07-16T06:24:07;21.20;46.30
13198;DHT22;6664;52.514;13.440;2023-07-16T06:26:52;21.30;45.70
13198;DHT22;6664;52.514;13.440;2023-07-16T06:29:38;21.30;45.50
13198;DHT22;6664;52.514;13.440;2023-07-16T06:32:24;21.40;45.20
13198;DHT22;6664;52.514;13.440;2023-07-16T06:35:12;21.50;44.20
13198;DHT22;6664;52.514;13.440;2023-07-16T06:37:57;21.50;44.20
13198;DHT22;6664;52.514;13.440;2023-07-16T06:40:50;21.60;43.40
13198;DHT22;6664;52.514;13.440;2023-07-16T06:43:36;21.60;43.30
13198;DHT22;6664;52.514;13.440;2023-07-16T06:46:21;21.70;43.30
13198;DHT22;6664;52.514;13.440;2023-07-16T06:49:07;21.80;41.10
13198;DHT22;6664;52.514;13.440;2023-07-16T06:51:53;21.80;41.00
13198;DHT22;6664;52.514;13.440;2023-07-16T06:54:39;21.90;41.10
13198;DHT22;6664;52.514;13.440;2023-07-16T06:57:28;22.00;40.40
13198;DHT22;6664;52.514;13.440;2023-07-16T07:00:14;22.10;38.60
13198;DHT22;6664;52.514;13.440;2023-07-16T07:03:01;22.30;37.10
13198;DHT22;6664;52.514;13.440;2023-07-16T07:05:47;22.40;36.60
13198;DHT22;6664;52.514;13.440;2023-07-16T07:08:33;22.90;35.00
13198;DHT22;6664;52.514;13.440;2023-07-16T07:11:18;23.30;32.60
13198;DHT22;6664;52.514;13.440;2023-07-16T07:14:04;23.50;30.50
13198;DHT22;6664;52.514;13.440;2023-07-16T07:16:49;23.60;30.30
13198;DHT22;6664;52.514;13.440;2023-07-16T07:19:35;23.20;30.20
13198;DHT22;6664;52.514;13.440;2023-07-16T07:22:21;23.10;30.00
13198;DHT22;6664;52.514;13.440;2023-07-16T07:25:09;23.70;29.10
13198;DHT22;6664;52.514;13.440;2023-07-16T07:27:56;23.90;29.00
13198;DHT22;6664;52.514;13.440;2023-07-16T07:30:41;23.70;27.10
13198;DHT22;6664;52.514;13.440;2023-07-16T07:33:29;23.80;27.00
13198;DHT22;6664;52.514;13.440;2023-07-16T07:36:17;24.00;27.10
13198;DHT22;6664;52.514;13.440;2023-07-16T07:39:04;24.20;24.90
13198;DHT22;6664;52.514;13.440;2023-07-16T07:41:49;24.00;26.00
13198;DHT22;6664;52.514;13.440;2023-07-16T07:44:35;24.20;26.20
13198;DHT22;6664;52.514;13.440;2023-07-16T07:47:23;24.50;24.70
13198;DHT22;6664;52.514;13.440;2023-07-16T07:50:09;24.80;23.10
13198;DHT22;6664;52.514;13.440;2023-07-16T07:52:54;24.90;22.70
13198;DHT22;6664;52.514;13.440;2023-07-16T07:55:40;24.60;23.40
13198;DHT22;6664;52.514;13.440;2023-07-16T07:58:30;24.50;23.70
13198;DHT22;6664;52.514;13.440;2023-07-16T08:01:19;23.90;23.60
13198;DHT22;6664;52.514;13.440;2023-07-16T08:04:05;23.70;24.50
13198;DHT22;6664;52.514;13.440;2023-07-16T08:06:52;23.50;24.60
13198;DHT22;6664;52.514;13.440;2023-07-16T08:09:38;23.40;25.10
13198;DHT22;6664;52.514;13.440;2023-07-16T08:12:24;23.70;24.40
13198;DHT22;6664;52.514;13.440;2023-07-16T08:15:10;24.50;22.00
13198;DHT22;6664;52.514;13.440;2023-07-16T08:18:02;25.10;20.20
13198;DHT22;6664;52.514;13.440;2023-07-16T08:20:51;25.00;19.00
13198;DHT22;6664;52.514;13.440;2023-07-16T08:23:40;24.30;18.90
13198;DHT22;6664;52.514;13.440;2023-07-16T08:26:26;24.10;19.80
13198;DHT22;6664;52.514;13.440;2023-07-16T08:29:11;23.60;20.10
13198;DHT22;6664;52.514;13.440;2023-07-16T08:31:57;23.30;21.10
13198;DHT22;6664;52.514;13.440;2023-07-16T08:34:42;23.10;20.30
13198;DHT22;6664;52.514;13.440;2023-07-16T08:37:28;23.10;20.50
13198;DHT22;6664;52.514;13.440;2023-07-16T08:40:17;23.10;19.50
13198;DHT22;6664;52.514;13.440;2023-07-16T08:43:05;23.10;18.20
13198;DHT22;6664;52.514;13.440;2023-07-16T08:45:54;23.20;18.40
13198;DHT22;6664;52.514;13.440;2023-07-16T08:48:45;23.30;17.60
13198;DHT22;6664;52.514;13.440;2023-07-16T08:51:30;23.30;17.60
13198;DHT22;6664;52.514;13.440;2023-07-16T08:54:16;23.30;17.60
13198;DHT22;6664;52.514;13.440;2023-07-16T08:57:03;23.50;17.00
13198;DHT22;6664;52.514;13.440;2023-07-16T08:59:51;23.90;14.70
13198;DHT22;6664;52.514;13.440;2023-07-16T09:02:37;23.80;14.00
13198;DHT22;6664;52.514;13.440;2023-07-16T09:05:27;23.60;14.90
13198;DHT22;6664;52.514;13.440;2023-07-16T09:08:23;23.60;14.80
13198;DHT22;6664;52.514;13.440;2023-07-16T09:11:14;23.60;15.90
13198;DHT22;6664;52.514;13.440;2023-07-16T09:14:02;23.80;15.60
13198;DHT22;6664;52.514;13.440;2023-07-16T09:16:51;24.20;14.30
13198;DHT22;6664;52.514;13.440;2023-07-16T09:19:37;24.60;13.40
13198;DHT22;6664;52.514;13.440;2023-07-16T09:22:23;24.90;12.10
13198;DHT22;6664;52.514;13.440;2023-07-16T09:25:09;24.60;10.00
13198;DHT22;6664;52.514;13.440;2023-07-16T09:28:02;24.50;10.50
13198;DHT22;6664;52.514;13.440;2023-07-16T09:30:52;24.60;10.10
13198;DHT22;6664;52.514;13.440;2023-07-16T09:33:39;24.50;10.40
13198;DHT22;6664;52.514;13.440;2023-07-16T09:36:26;24.50;11.40
13198;DHT22;6664;52.514;13.440;2023-07-16T09:39:17;24.20;11.70
13198;DHT22;6664;52.514;13.440;2023-07-16T09:42:05;24.20;11.90
13198;DHT22;6664;52.514;13.440;2023-07-16T09:44:53;24.00;11.40
13198;DHT22;6664;52.514;13.440;2023-07-16T09:47:39;24.00;11.30
13198;DHT22;6664;52.514;13.440;2023-07-16T09:50:27;24.00;11.70
13198;DHT22;6664;52.514;13.440;2023-07-16T09:53:15;24.00;11.20
13198;DHT22;6664;52.514;13.440;2023-07-16T09:56:04;24.10;11.10
13198;DHT22;6664;52.514;13.440;2023-07-16T09:58:52;24.40;10.60
13198;DHT22;6664;52.514;13.440;2023-07-16T10:01:39;24.70;9.20
13198;DHT22;6664;52.514;13.440;2023-07-16T10:04:37;24.60;9.20
13198;DHT22;6664;52.514;13.440;2023-07-16T10:07:26;24.70;9.20
13198;DHT22;6664;52.514;13.440;2023-07-16T10:10:12;25.00;9.40
13198;DHT22;6664;52.514;13.440;2023-07-16T10:13:02;25.30;7.80
13198;DHT22;6664;52.514;13.440;2023-07-16T10:15:58;25.40;7.60
13198;DHT22;6664;52.514;13.440;2023-07-16T10:18:51;25.40;7.60
13198;DHT22;6664;52.514;13.440;2023-07-16T10:21:38;25.20;7.40
13198;DHT22;6664;52.514;13.440;2023-07-16T10:24:27;25.30;7.60
13198;DHT22;6664;52.514;13.440;2023-07-16T10:27:28;25.60;6.80
13198;DHT22;6664;52.514;13.440;2023-07-16T10:30:15;25.70;6.50
13198;DHT22;6664;52.514;13.440;2023-07-16T10:33:11;25.80;6.30
13198;DHT22;6664;52.514;13.440;2023-07-16T10:35:59;25.20;6.60
13198;DHT22;6664;52.514;13.440;2023-07-16T10:38:44;25.40;6.30
13198;DHT22;6664;52.514;13.440;2023-07-16T10:41:31;25.60;6.40
13198;DHT22;6664;52.514;13.440;2023-07-16T10:44:20;26.30;5.20
13198;DHT22;6664;52.514;13.440;2023-07-16T10:47:07;26.50;3.90
13198;DHT22;6664;52.514;13.440;2023-07-16T10:49:55;26.40;4.20
13198;DHT22;6664;52.514;13.440;2023-07-16T10:52:40;26.50;4.00
13198;DHT22;6664;52.514;13.440;2023-07-16T10:55:28;26.60;4.20
13198;DHT22;6664;52.514;13.440;2023-07-16T10:58:21;26.70;3.50
13198;DHT22;6664;52.514;13.440;2023-07-16T11:01:08;26.70;2.90
13198;DHT22;6664;52.514;13.440;2023-07-16T11:04:00;26.90;2.60
13198;DHT22;6664;52.514;13.440;2023-07-16T11:06:46;26.90;2.30
13198;DHT22;6664;52.514;13.440;2023-07-16T11:09:32;26.30;3.80
13198;DHT22;6664;52.514;13.440;2023-07-16T11:12:21;26.20;4.60
13198;DHT22;6664;52.514;13.440;2023-07-16T11:15:07;26.20;4.70
13198;DHT22;6664;52.514;13.440;2023-07-16T11:17:53;26.00;4.70
13198;DHT22;6664;52.514;13.440;2023-07-16T11:20:40;25.90;5.20
13198;DHT22;6664;52.514;13.440;2023-07-16T11:23:25;25.90;5.00
13198;DHT22;6664;52.514;13.440;2023-07-16T11:26:12;26.20;4.30
13198;DHT22;6664;52.514;13.440;2023-07-16T11:28:57;26.50;4.70
13198;DHT22;6664;52.514;13.440;2023-07-16T11:31:52;26.70;3.90
13198;DHT22;6664;52.514;13.440;2023-07-16T11:34:38;26.90;3.20
13198;DHT22;6664;52.514;13.440;2023-07-16T11:37:36;26.90;2.80
13198;DHT22;6664;52.514;13.440;2023-07-16T11:40:21;27.50;2.40
13198;DHT22;6664;52.514;13.440;2023-07-16T11:43:11;28.50;1.40
13198;DHT22;6664;52.514;13.440;2023-07-16T11:45:57;28.10;1.00
13198;DHT22;6664;52.514;13.440;2023-07-16T11:48:43;28.00;1.00
13198;DHT22;6664;52.514;13.440;2023-07-16T11:51:28;27.70;1.00
13198;DHT22;6664;52.514;13.440;2023-07-16T11:54:14;27.70;1.00
13198;DHT22;6664;52.514;13.440;2023-07-16T11:57:00;27.50;1.00
13198;DHT22;6664;52.514;13.440;2023-07-16T11:59:46;27.30;1.00
13198;DHT22;6664;52.514;13.440;2023-07-16T12:02:31;27.40;1.00
13198;DHT22;6664;52.514;13.440;2023-07-16T12:05:21;27.80;1.00
13198;DHT22;6664;52.514;13.440;2023-07-16T12:08:26;27.70;1.00
13198;DHT22;6664;52.514;13.440;2023-07-16T12:11:12;27.70;1.00
13198;DHT22;6664;52.514;13.440;2023-07-16T12:13:57;28.10;1.00
13198;DHT22;6664;52.514;13.440;2023-07-16T12:16:43;28.70;1.00
13198;DHT22;6664;52.514;13.440;2023-07-16T12:19:28;28.70;1.00
13198;DHT22;6664;52.514;13.440;2023-07-16T12:22:17;28.00;1.00
13198;DHT22;6664;52.514;13.440;2023-07-16T12:25:02;28.30;1.00
13198;DHT22;6664;52.514;13.440;2023-07-16T12:27:49;28.60;1.00
13198;DHT22;6664;52.514;13.440;2023-07-16T12:30:40;28.10;1.00
13198;DHT22;6664;52.514;13.440;2023-07-16T12:33:27;29.00;1.00
13198;DHT22;6664;52.514;13.440;2023-07-16T12:36:13;30.50;1.00
13198;DHT22;6664;52.514;13.440;2023-07-16T12:39:00;31.10;1.00
13198;DHT22;6664;52.514;13.440;2023-07-16T12:41:46;32.20;1.00
13198;DHT22;6664;52.514;13.440;2023-07-16T12:44:31;30.80;1.00
13198;DHT22;6664;52.514;13.440;2023-07-16T12:47:17;29.20;1.00
13198;DHT22;6664;52.514;13.440;2023-07-16T12:50:03;28.90;1.00
13198;DHT22;6664;52.514;13.440;2023-07-16T12:52:52;30.30;1.00
13198;DHT22;6664;52.514;13.440;2023-07-16T12:55:38;35.90;1.00
13198;DHT22;6664;52.514;13.440;2023-07-16T12:58:23;38.60;1.00
13198;DHT22;6664;52.514;13.440;2023-07-16T13:01:12;33.60;1.00
13198;DHT22;6664;52.514;13.440;2023-07-16T13:04:00;33.80;1.00
13198;DHT22;6664;52.514;13.440;2023-07-16T13:06:46;39.20;1.00
13198;DHT22;6664;52.514;13.440;2023-07-16T13:09:33;41.00;1.00
13198;DHT22;6664;52.514;13.440;2023-07-16T13:12:21;38.80;1.00
13198;DHT22;6664;52.514;13.440;2023-07-16T13:15:07;42.20;1.00
13198;DHT22;6664;52.514;13.440;2023-07-16T13:17:53;46.10;1.00
13198;DHT22;6664;52.514;13.440;2023-07-16T13:20:38;39.80;1.00
13198;DHT22;6664;52.514;13.440;2023-07-16T13:23:26;36.10;1.00
13198;DHT22;6664;52.514;13.440;2023-07-16T13:26:12;34.40;1.00
13198;DHT22;6664;52.514;13.440;2023-07-16T13:28:57;33.20;1.00
13198;DHT22;6664;52.514;13.440;2023-07-16T13:31:43;31.10;1.00
13198;DHT22;6664;52.514;13.440;2023-07-16T13:34:31;37.30;1.00
13198;DHT22;6664;52.514;13.440;2023-07-16T13:37:17;40.10;1.00
13198;DHT22;6664;52.514;13.440;2023-07-16T13:40:03;44.70;1.00
13198;DHT22;6664;52.514;13.440;2023-07-16T13:42:48;43.00;1.00
13198;DHT22;6664;52.514;13.440;2023-07-16T13:45:34;41.50;1.00
13198;DHT22;6664;52.514;13.440;2023-07-16T13:48:21;36.50;1.00
13198;DHT22;6664;52.514;13.440;2023-07-16T13:51:06;43.40;1.00
13198;DHT22;6664;52.514;13.440;2023-07-16T13:53:52;46.30;1.00
13198;DHT22;6664;52.514;13.440;2023-07-16T13:56:38;45.50;1.00
13198;DHT22;6664;52.514;13.440;2023-07-16T13:59:24;46.50;1.00
13198;DHT22;6664;52.514;13.440;2023-07-16T14:02:09;44.00;1.00
13198;DHT22;6664;52.514;13.440;2023-07-16T14:04:55;44.60;1.00
13198;DHT22;6664;52.514;13.440;2023-07-16T14:07:40;47.40;1.00
13198;DHT22;6664;52.514;13.440;2023-07-16T14:10:26;46.60;1.00
13198;DHT22;6664;52.514;13.440;2023-07-16T14:13:12;48.00;1.00
13198;DHT22;6664;52.514;13.440;2023-07-16T14:15:58;43.30;1.00
13198;DHT22;6664;52.514;13.440;2023-07-16T14:18:43;38.20;1.00
13198;DHT22;6664;52.514;13.440;2023-07-16T14:21:31;40.00;1.00
13198;DHT22;6664;52.514;13.440;2023-07-16T14:24:17;42.90;1.00
13198;DHT22;6664;52.514;13.440;2023-07-16T14:27:03;44.60;1.00
13198;DHT22;6664;52.514;13.440;2023-07-16T14:29:49;43.70;1.00
13198;DHT22;6664;52.514;13.440;2023-07-16T14:32:50;38.60;1.00
13198;DHT22;6664;52.514;13.440;2023-07-16T14:35:36;42.30;1.00
13198;DHT22;6664;52.514;13.440;2023-07-16T14:38:23;42.10;1.00
13198;DHT22;6664;52.514;13.440;2023-07-16T14:41:09;42.20;1.00
13198;DHT22;6664;52.514;13.440;2023-07-16T14:43:55;40.90;1.00
13198;DHT22;6664;52.514;13.440;2023-07-16T14:46:42;38.70;1.00
13198;DHT22;6664;52.514;13.440;2023-07-16T14:49:28;35.50;1.00
13198;DHT22;6664;52.514;13.440;2023-07-16T14:52:14;34.90;1.00
13198;DHT22;6664;52.514;13.440;2023-07-16T14:55:02;35.30;1.00
13198;DHT22;6664;52.514;13.440;2023-07-16T14:57:49;35.60;1.00
13198;DHT22;6664;52.514;13.440;2023-07-16T15:00:35;35.80;1.00
13198;DHT22;6664;52.514;13.440;2023-07-16T15:03:21;33.50;1.00
13198;DHT22;6664;52.514;13.440;2023-07-16T15:06:07;32.80;1.00
13198;DHT22;6664;52.514;13.440;2023-07-16T15:08:53;32.30;1.00
13198;DHT22;6664;52.514;13.440;2023-07-16T15:11:39;31.50;1.00
13198;DHT22;6664;52.514;13.440;2023-07-16T15:14:24;31.10;1.00
13198;DHT22;6664;52.514;13.440;2023-07-16T15:17:09;30.70;1.00
13198;DHT22;6664;52.514;13.440;2023-07-16T15:19:54;30.90;1.00
13198;DHT22;6664;52.514;13.440;2023-07-16T15:22:43;30.50;1.00
13198;DHT22;6664;52.514;13.440;2023-07-16T15:25:29;31.70;1.00
13198;DHT22;6664;52.514;13.440;2023-07-16T15:28:14;31.00;1.00
13198;DHT22;6664;52.514;13.440;2023-07-16T15:31:02;30.70;1.00
13198;DHT22;6664;52.514;13.440;2023-07-16T15:33:48;30.50;1.00
13198;DHT22;6664;52.514;13.440;2023-07-16T15:36:33;30.50;1.00
13198;DHT22;6664;52.514;13.440;2023-07-16T15:39:19;29.50;1.00
13198;DHT22;6664;52.514;13.440;2023-07-16T15:42:07;30.10;1.00
13198;DHT22;6664;52.514;13.440;2023-07-16T15:44:53;32.10;1.00
13198;DHT22;6664;52.514;13.440;2023-07-16T15:47:41;33.40;1.00
13198;DHT22;6664;52.514;13.440;2023-07-16T15:50:27;31.40;1.00
13198;DHT22;6664;52.514;13.440;2023-07-16T15:53:18;30.60;1.00
13198;DHT22;6664;52.514;13.440;2023-07-16T15:56:04;30.10;1.00
13198;DHT22;6664;52.514;13.440;2023-07-16T15:58:49;29.60;1.00
13198;DHT22;6664;52.514;13.440;2023-07-16T16:01:35;29.50;1.00
13198;DHT22;6664;52.514;13.440;2023-07-16T16:04:22;29.60;1.00
13198;DHT22;6664;52.514;13.440;2023-07-16T16:07:10;30.20;1.00
13198;DHT22;6664;52.514;13.440;2023-07-16T16:09:56;30.30;1.00
13198;DHT22;6664;52.514;13.440;2023-07-16T16:12:42;29.70;1.00
13198;DHT22;6664;52.514;13.440;2023-07-16T16:15:30;31.10;1.00
13198;DHT22;6664;52.514;13.440;2023-07-16T16:18:15;30.80;1.00
13198;DHT22;6664;52.514;13.440;2023-07-16T16:21:04;30.40;1.00
13198;DHT22;6664;52.514;13.440;2023-07-16T16:23:51;29.70;1.00
13198;DHT22;6664;52.514;13.440;2023-07-16T16:26:36;29.60;1.00
13198;DHT22;6664;52.514;13.440;2023-07-16T16:29:22;28.90;1.00
13198;DHT22;6664;52.514;13.440;2023-07-16T16:32:08;28.30;1.00
13198;DHT22;6664;52.514;13.440;2023-07-16T16:34:56;28.10;1.00
13198;DHT22;6664;52.514;13.440;2023-07-16T16:37:42;28.00;1.00
13198;DHT22;6664;52.514;13.440;2023-07-16T16:40:28;27.80;1.00
13198;DHT22;6664;52.514;13.440;2023-07-16T16:43:13;27.80;1.00
13198;DHT22;6664;52.514;13.440;2023-07-16T16:45:59;27.90;1.00
13198;DHT22;6664;52.514;13.440;2023-07-16T16:48:45;27.80;1.00
13198;DHT22;6664;52.514;13.440;2023-07-16T16:51:31;27.60;1.00
13198;DHT22;6664;52.514;13.440;2023-07-16T16:54:16;27.50;1.00
13198;DHT22;6664;52.514;13.440;2023-07-16T16:57:01;27.60;1.00
13198;DHT22;6664;52.514;13.440;2023-07-16T16:59:49;28.30;1.00
13198;DHT22;6664;52.514;13.440;2023-07-16T17:02:34;28.10;1.00
13198;DHT22;6664;52.514;13.440;2023-07-16T17:05:20;27.70;1.00
13198;DHT22;6664;52.514;13.440;2023-07-16T17:08:06;27.50;1.00
13198;DHT22;6664;52.514;13.440;2023-07-16T17:10:53;27.50;1.00
13198;DHT22;6664;52.514;13.440;2023-07-16T17:13:38;27.30;1.00
13198;DHT22;6664;52.514;13.440;2023-07-16T17:16:24;26.90;1.00
13198;DHT22;6664;52.514;13.440;2023-07-16T17:19:10;26.70;1.00
13198;DHT22;6664;52.514;13.440;2023-07-16T17:21:59;26.60;1.00
13198;DHT22;6664;52.514;13.440;2023-07-16T17:24:48;26.40;1.00
13198;DHT22;6664;52.514;13.440;2023-07-16T17:27:36;26.40;1.00
13198;DHT22;6664;52.514;13.440;2023-07-16T17:30:22;26.50;1.00
13198;DHT22;6664;52.514;13.440;2023-07-16T17:33:08;26.50;1.00
13198;DHT22;6664;52.514;13.440;2023-07-16T17:35:55;26.50;1.00
13198;DHT22;6664;52.514;13.440;2023-07-16T17:38:41;26.50;1.00
13198;DHT22;6664;52.514;13.440;2023-07-16T17:41:27;26.50;1.00
13198;DHT22;6664;52.514;13.440;2023-07-16T17:44:13;26.40;1.00
13198;DHT22;6664;52.514;13.440;2023-07-16T17:47:01;26.40;1.00
13198;DHT22;6664;52.514;13.440;2023-07-16T17:49:48;26.30;1.00